sensor_id;sensor_type;location;lat;lon;timestamp;pressure;altitude;pressure_sealevel;temperature;humidity
73024;BME280;61199;47.526;8.538;2023-04-06T00:02:23;96670.75;;;8.12;48.84
73024;BME280;61199;47.526;8.538;2023-04-06T00:04:49;96671.25;;;8.06;49.12
73024;BME280;61199;47.526;8.538;2023-04-06T00:07:16;96670.97;;;7.98;49.29
73024;BME280;61199;47.526;8.538;2023-04-06T00:09:42;96678.09;;;7.72;49.94
73024;BME280;61199;47.526;8.538;2023-04-06T00:12:09;96675.34;;;7.74;50.44
73024;BME280;61199;47.526;8.538;2023-04-06T00:14:35;96672.97;;;7.71;50.66
73024;BME280;61199;47.526;8.538;2023-04-06T00:17:01;96666.59;;;7.75;50.28
73024;BME280;61199;47.526;8.538;2023-04-06T00:19:28;96667.31;;;7.77;50.32
73024;BME280;61199;47.526;8.538;2023-04-06T00:21:55;96665.72;;;7.63;50.42
73024;BME280;61199;47.526;8.538;2023-04-06T00:24:21;96666.53;;;7.64;49.95
73024;BME280;61199;47.526;8.538;2023-04-06T00:26:48;96669.59;;;7.58;50.32
73024;BME280;61199;47.526;8.538;2023-04-06T00:29:14;96667.44;;;7.52;50.65
73024;BME280;61199;47.526;8.538;2023-04-06T00:31:41;96672.88;;;7.49;50.06
73024;BME280;61199;47.526;8.538;2023-04-06T00:34:07;96672.44;;;7.42;50.88
73024;BME280;61199;47.526;8.538;2023-04-06T00:36:34;96670.41;;;7.35;50.80
73024;BME280;61199;47.526;8.538;2023-04-06T00:39:00;96666.84;;;7.36;50.60
73024;BME280;61199;47.526;8.538;2023-04-06T00:41:27;96662.91;;;7.30;51.01
73024;BME280;61199;47.526;8.538;2023-04-06T00:43:53;96660.63;;;7.26;50.41
73024;BME280;61199;47.526;8.538;2023-04-06T00:46:20;96657.63;;;7.19;50.49
73024;BME280;61199;47.526;8.538;2023-04-06T00:48:47;96659.19;;;7.22;51.08
73024;BME280;61199;47.526;8.538;2023-04-06T00:51:13;96665.06;;;7.13;50.85
73024;BME280;61199;47.526;8.538;2023-04-06T00:53:40;96660.28;;;7.07;50.82
73024;BME280;61199;47.526;8.538;2023-04-06T00:56:06;96667.13;;;7.08;51.02
73024;BME280;61199;47.526;8.538;2023-04-06T00:58:33;96662.47;;;7.00;51.45
73024;BME280;61199;47.526;8.538;2023-04-06T01:00:59;96657.38;;;6.99;51.67
73024;BME280;61199;47.526;8.538;2023-04-06T01:03:27;96652.25;;;6.97;51.76
73024;BME280;61199;47.526;8.538;2023-04-06T01:05:53;96657.19;;;6.89;51.93
73024;BME280;61199;47.526;8.538;2023-04-06T01:08:24;96655.50;;;6.88;51.46
73024;BME280;61199;47.526;8.538;2023-04-06T01:10:51;96652.19;;;6.86;51.89
73024;BME280;61199;47.526;8.538;2023-04-06T01:13:17;96655.50;;;6.88;52.09
73024;BME280;61199;47.526;8.538;2023-04-06T01:15:44;96649.69;;;6.85;51.50
73024;BME280;61199;47.526;8.538;2023-04-06T01:18:10;96651.56;;;6.83;51.62
73024;BME280;61199;47.526;8.538;2023-04-06T01:20:37;96652.31;;;6.85;51.96
73024;BME280;61199;47.526;8.538;2023-04-06T01:23:03;96649.06;;;6.81;52.31
73024;BME280;61199;47.526;8.538;2023-04-06T01:25:30;96639.94;;;6.76;51.93
73024;BME280;61199;47.526;8.538;2023-04-06T01:27:56;96648.88;;;6.72;52.42
73024;BME280;61199;47.526;8.538;2023-04-06T01:30:22;96641.59;;;6.64;52.36
73024;BME280;61199;47.526;8.538;2023-04-06T01:32:49;96647.00;;;6.61;52.72
73024;BME280;61199;47.526;8.538;2023-04-06T01:35:18;96643.25;;;6.53;52.77
73024;BME280;61199;47.526;8.538;2023-04-06T01:37:44;96638.38;;;6.48;52.55
73024;BME280;61199;47.526;8.538;2023-04-06T01:40:11;96634.28;;;6.57;52.66
73024;BME280;61199;47.526;8.538;2023-04-06T01:42:38;96632.84;;;6.53;52.85
73024;BME280;61199;47.526;8.538;2023-04-06T01:45:05;96627.44;;;6.43;52.75
73024;BME280;61199;47.526;8.538;2023-04-06T01:47:31;96631.72;;;6.44;53.08
73024;BME280;61199;47.526;8.538;2023-04-06T01:49:57;96624.75;;;6.45;52.98
73024;BME280;61199;47.526;8.538;2023-04-06T01:52:24;96630.56;;;6.48;52.93
73024;BME280;61199;47.526;8.538;2023-04-06T01:54:51;96636.19;;;6.42;53.17
73024;BME280;61199;47.526;8.538;2023-04-06T01:57:17;96638.19;;;6.39;53.27
73024;BME280;61199;47.526;8.538;2023-04-06T01:59:43;96630.03;;;6.43;52.97
73024;BME280;61199;47.526;8.538;2023-04-06T02:02:10;96627.66;;;6.40;53.70
73024;BME280;61199;47.526;8.538;2023-04-06T02:04:36;96628.28;;;6.44;53.64
73024;BME280;61199;47.526;8.538;2023-04-06T02:07:03;96632.22;;;6.49;53.41
73024;BME280;61199;47.526;8.538;2023-04-06T02:09:29;96629.94;;;6.45;53.87
73024;BME280;61199;47.526;8.538;2023-04-06T02:11:56;96634.19;;;6.46;53.23
73024;BME280;61199;47.526;8.538;2023-04-06T02:14:25;96636.19;;;6.42;53.73
73024;BME280;61199;47.526;8.538;2023-04-06T02:16:51;96625.19;;;6.39;53.63
73024;BME280;61199;47.526;8.538;2023-04-06T02:19:18;96631.81;;;6.30;53.52
73024;BME280;61199;47.526;8.538;2023-04-06T02:21:45;96627.25;;;6.34;53.75
73024;BME280;61199;47.526;8.538;2023-04-06T02:24:11;96627.88;;;6.25;54.18
73024;BME280;61199;47.526;8.538;2023-04-06T02:26:37;96627.66;;;6.03;54.48
73024;BME280;61199;47.526;8.538;2023-04-06T02:29:04;96634.06;;;5.97;54.13
73024;BME280;61199;47.526;8.538;2023-04-06T02:31:31;96624.91;;;5.92;54.22
73024;BME280;61199;47.526;8.538;2023-04-06T02:33:57;96629.47;;;5.88;54.90
73024;BME280;61199;47.526;8.538;2023-04-06T02:36:24;96638.31;;;5.86;54.45
73024;BME280;61199;47.526;8.538;2023-04-06T02:38:50;96631.69;;;5.68;54.51
73024;BME280;61199;47.526;8.538;2023-04-06T02:41:17;96638.34;;;5.72;54.75
73024;BME280;61199;47.526;8.538;2023-04-06T02:43:44;96634.63;;;5.76;54.20
73024;BME280;61199;47.526;8.538;2023-04-06T02:46:10;96630.53;;;5.86;54.06
73024;BME280;61199;47.526;8.538;2023-04-06T02:48:37;96639.25;;;5.85;54.93
73024;BME280;61199;47.526;8.538;2023-04-06T02:51:03;96634.50;;;5.91;54.20
73024;BME280;61199;47.526;8.538;2023-04-06T02:53:30;96633.22;;;5.84;54.58
73024;BME280;61199;47.526;8.538;2023-04-06T02:55:56;96634.06;;;5.85;54.42
73024;BME280;61199;47.526;8.538;2023-04-06T02:58:22;96630.53;;;5.86;54.45
73024;BME280;61199;47.526;8.538;2023-04-06T03:00:49;96624.91;;;5.92;54.42
73024;BME280;61199;47.526;8.538;2023-04-06T03:03:16;96629.91;;;5.95;54.52
73024;BME280;61199;47.526;8.538;2023-04-06T03:05:42;96629.72;;;5.98;54.84
73024;BME280;61199;47.526;8.538;2023-04-06T03:08:09;96621.25;;;5.82;55.22
73024;BME280;61199;47.526;8.538;2023-04-06T03:10:35;96629.03;;;5.82;55.07
73024;BME280;61199;47.526;8.538;2023-04-06T03:13:02;96628.81;;;5.72;55.28
73024;BME280;61199;47.526;8.538;2023-04-06T03:15:28;96626.28;;;5.71;55.61
73024;BME280;61199;47.526;8.538;2023-04-06T03:17:54;96625.88;;;5.64;55.93
73024;BME280;61199;47.526;8.538;2023-04-06T03:20:24;96627.53;;;5.65;55.21
73024;BME280;61199;47.526;8.538;2023-04-06T03:22:50;96622.63;;;5.61;56.13
73024;BME280;61199;47.526;8.538;2023-04-06T03:25:17;96620.25;;;5.58;55.57
73024;BME280;61199;47.526;8.538;2023-04-06T03:27:43;96631.28;;;5.62;55.39
73024;BME280;61199;47.526;8.538;2023-04-06T03:30:10;96629.09;;;5.42;56.47
73024;BME280;61199;47.526;8.538;2023-04-06T03:32:36;96627.41;;;5.55;56.28
73024;BME280;61199;47.526;8.538;2023-04-06T03:35:03;96629.16;;;5.54;56.19
73024;BME280;61199;47.526;8.538;2023-04-06T03:37:30;96633.25;;;5.58;55.94
73024;BME280;61199;47.526;8.538;2023-04-06T03:39:56;96629.09;;;5.68;55.02
73024;BME280;61199;47.526;8.538;2023-04-06T03:42:22;96625.22;;;5.61;55.25
73024;BME280;61199;47.526;8.538;2023-04-06T03:44:49;96630.19;;;5.52;55.41
73024;BME280;61199;47.526;8.538;2023-04-06T03:47:15;96632.78;;;5.52;56.07
73024;BME280;61199;47.526;8.538;2023-04-06T03:49:41;96637.38;;;5.48;56.02
73024;BME280;61199;47.526;8.538;2023-04-06T03:52:08;96633.50;;;5.41;55.96
73024;BME280;61199;47.526;8.538;2023-04-06T03:54:35;96635.19;;;5.28;56.56
73024;BME280;61199;47.526;8.538;2023-04-06T03:57:01;96639.66;;;5.26;56.19
73024;BME280;61199;47.526;8.538;2023-04-06T03:59:27;96632.41;;;5.31;55.71
73024;BME280;61199;47.526;8.538;2023-04-06T04:01:54;96629.53;;;5.36;55.69
73024;BME280;61199;47.526;8.538;2023-04-06T04:04:21;96630.75;;;5.30;56.21
73024;BME280;61199;47.526;8.538;2023-04-06T04:06:47;96638.91;;;5.24;55.86
73024;BME280;61199;47.526;8.538;2023-04-06T04:09:14;96636.31;;;5.24;55.95
73024;BME280;61199;47.526;8.538;2023-04-06T04:11:40;96633.38;;;5.16;55.85
73024;BME280;61199;47.526;8.538;2023-04-06T04:14:07;96627.28;;;5.03;56.12
73024;BME280;61199;47.526;8.538;2023-04-06T04:16:33;96641.22;;;5.02;55.73
73024;BME280;61199;47.526;8.538;2023-04-06T04:18:59;96638.25;;;4.94;56.27
73024;BME280;61199;47.526;8.538;2023-04-06T04:21:29;96637.84;;;5.00;56.29
73024;BME280;61199;47.526;8.538;2023-04-06T04:23:56;96645.84;;;4.83;56.61
73024;BME280;61199;47.526;8.538;2023-04-06T04:26:23;96642.72;;;4.78;56.69
73024;BME280;61199;47.526;8.538;2023-04-06T04:28:49;96643.44;;;4.80;56.92
73024;BME280;61199;47.526;8.538;2023-04-06T04:31:16;96651.44;;;4.77;56.96
73024;BME280;61199;47.526;8.538;2023-04-06T04:33:44;96645.22;;;4.80;56.71
73024;BME280;61199;47.526;8.538;2023-04-06T04:36:10;96652.91;;;4.81;57.25
73024;BME280;61199;47.526;8.538;2023-04-06T04:38:37;96653.09;;;4.78;56.91
73024;BME280;61199;47.526;8.538;2023-04-06T04:41:04;96650.13;;;4.84;56.59
73024;BME280;61199;47.526;8.538;2023-04-06T04:43:30;96657.91;;;4.84;57.15
73024;BME280;61199;47.526;8.538;2023-04-06T04:45:58;96657.16;;;4.82;57.24
73024;BME280;61199;47.526;8.538;2023-04-06T04:48:25;96652.16;;;4.65;58.35
73024;BME280;61199;47.526;8.538;2023-04-06T04:50:52;96660.78;;;4.66;57.81
73024;BME280;61199;47.526;8.538;2023-04-06T04:53:18;96658.28;;;4.64;57.93
73024;BME280;61199;47.526;8.538;2023-04-06T04:55:44;96663.75;;;4.60;58.21
73024;BME280;61199;47.526;8.538;2023-04-06T04:58:11;96660.88;;;4.64;58.26
73024;BME280;61199;47.526;8.538;2023-04-06T05:00:44;96665.88;;;4.53;58.36
73024;BME280;61199;47.526;8.538;2023-04-06T05:03:16;96661.53;;;4.68;58.50
73024;BME280;61199;47.526;8.538;2023-04-06T05:05:44;96666.88;;;4.79;58.33
73024;BME280;61199;47.526;8.538;2023-04-06T05:08:11;96654.97;;;4.76;58.16
73024;BME280;61199;47.526;8.538;2023-04-06T05:10:37;96666.81;;;4.80;57.86
73024;BME280;61199;47.526;8.538;2023-04-06T05:13:04;96674.06;;;4.75;57.71
73024;BME280;61199;47.526;8.538;2023-04-06T05:15:30;96666.91;;;4.65;57.43
73024;BME280;61199;47.526;8.538;2023-04-06T05:17:57;96670.97;;;4.55;57.59
73024;BME280;61199;47.526;8.538;2023-04-06T05:20:24;96674.22;;;4.44;58.14
73024;BME280;61199;47.526;8.538;2023-04-06T05:22:51;96678.84;;;4.53;58.00
73024;BME280;61199;47.526;8.538;2023-04-06T05:25:17;96678.84;;;4.53;58.38
73024;BME280;61199;47.526;8.538;2023-04-06T05:27:43;96683.00;;;4.42;57.99
73024;BME280;61199;47.526;8.538;2023-04-06T05:30:10;96680.13;;;4.46;58.18
73024;BME280;61199;47.526;8.538;2023-04-06T05:32:37;96685.88;;;4.51;58.68
73024;BME280;61199;47.526;8.538;2023-04-06T05:35:03;96695.41;;;4.51;59.09
73024;BME280;61199;47.526;8.538;2023-04-06T05:37:30;96692.00;;;4.50;58.96
73024;BME280;61199;47.526;8.538;2023-04-06T05:39:56;96691.28;;;4.48;58.76
73024;BME280;61199;47.526;8.538;2023-04-06T05:42:22;96692.34;;;4.44;58.61
73024;BME280;61199;47.526;8.538;2023-04-06T05:44:49;96690.78;;;4.42;58.86
73024;BME280;61199;47.526;8.538;2023-04-06T05:47:15;96702.19;;;4.39;59.40
73024;BME280;61199;47.526;8.538;2023-04-06T05:49:42;96696.47;;;4.48;59.32
73024;BME280;61199;47.526;8.538;2023-04-06T05:52:08;96705.72;;;4.38;59.03
73024;BME280;61199;47.526;8.538;2023-04-06T05:54:36;96700.44;;;4.54;59.26
73024;BME280;61199;47.526;8.538;2023-04-06T05:57:03;96707.66;;;4.63;59.13
73024;BME280;61199;47.526;8.538;2023-04-06T05:59:30;96702.75;;;4.72;58.94
73024;BME280;61199;47.526;8.538;2023-04-06T06:01:57;96706.28;;;4.71;59.06
73024;BME280;61199;47.526;8.538;2023-04-06T06:04:24;96702.19;;;4.81;58.64
73024;BME280;61199;47.526;8.538;2023-04-06T06:06:50;96714.59;;;4.90;58.61
73024;BME280;61199;47.526;8.538;2023-04-06T06:09:16;96711.94;;;4.92;59.26
73024;BME280;61199;47.526;8.538;2023-04-06T06:11:43;96705.72;;;4.80;59.08
73024;BME280;61199;47.526;8.538;2023-04-06T06:14:09;96708.97;;;4.98;58.77
73024;BME280;61199;47.526;8.538;2023-04-06T06:16:36;96714.03;;;4.99;58.76
73024;BME280;61199;47.526;8.538;2023-04-06T06:19:02;96717.56;;;4.98;58.58
73024;BME280;61199;47.526;8.538;2023-04-06T06:21:29;96717.94;;;5.06;58.91
73024;BME280;61199;47.526;8.538;2023-04-06T06:23:57;96718.13;;;5.03;58.63
73024;BME280;61199;47.526;8.538;2023-04-06T06:26:24;96717.94;;;5.06;57.72
73024;BME280;61199;47.526;8.538;2023-04-06T06:28:50;96717.75;;;5.09;58.17
73024;BME280;61199;47.526;8.538;2023-04-06T06:31:17;96718.66;;;5.22;57.10
73024;BME280;61199;47.526;8.538;2023-04-06T06:33:44;96718.84;;;5.33;57.00
73024;BME280;61199;47.526;8.538;2023-04-06T06:36:11;96721.06;;;5.25;57.41
73024;BME280;61199;47.526;8.538;2023-04-06T06:38:37;96719.13;;;5.29;57.47
73024;BME280;61199;47.526;8.538;2023-04-06T06:41:04;96714.84;;;5.28;57.62
73024;BME280;61199;47.526;8.538;2023-04-06T06:43:31;96722.16;;;5.35;56.86
73024;BME280;61199;47.526;8.538;2023-04-06T06:45:57;96720.13;;;5.40;57.53
73024;BME280;61199;47.526;8.538;2023-04-06T06:48:25;96722.31;;;5.46;56.78
73024;BME280;61199;47.526;8.538;2023-04-06T06:50:51;96720.34;;;5.50;56.80
73024;BME280;61199;47.526;8.538;2023-04-06T06:53:19;96718.56;;;5.64;56.63
73024;BME280;61199;47.526;8.538;2023-04-06T06:55:46;96725.97;;;5.70;56.83
73024;BME280;61199;47.526;8.538;2023-04-06T06:58:12;96714.19;;;5.64;56.98
73024;BME280;61199;47.526;8.538;2023-04-06T07:00:39;96724.31;;;5.69;57.25
73024;BME280;61199;47.526;8.538;2023-04-06T07:03:05;96720.13;;;5.80;57.17
73024;BME280;61199;47.526;8.538;2023-04-06T07:05:32;96724.09;;;5.86;56.57
73024;BME280;61199;47.526;8.538;2023-04-06T07:07:58;96722.88;;;5.91;56.65
73024;BME280;61199;47.526;8.538;2023-04-06T07:10:25;96720.66;;;6.12;55.89
73024;BME280;61199;47.526;8.538;2023-04-06T07:12:52;96714.63;;;6.24;55.48
73024;BME280;61199;47.526;8.538;2023-04-06T07:15:18;96712.75;;;6.26;55.09
73024;BME280;61199;47.526;8.538;2023-04-06T07:17:45;96713.06;;;6.34;55.20
73024;BME280;61199;47.526;8.538;2023-04-06T07:20:12;96716.31;;;6.50;54.59
73024;BME280;61199;47.526;8.538;2023-04-06T07:22:43;96717.31;;;6.22;54.56
73024;BME280;61199;47.526;8.538;2023-04-06T07:25:12;96722.44;;;6.36;54.01
73024;BME280;61199;47.526;8.538;2023-04-06T07:27:39;96719.88;;;6.10;53.91
73024;BME280;61199;47.526;8.538;2023-04-06T07:30:06;96720.69;;;5.71;54.87
73024;BME280;61199;47.526;8.538;2023-04-06T07:32:32;96723.47;;;5.82;54.49
73024;BME280;61199;47.526;8.538;2023-04-06T07:35:00;96716.84;;;5.77;54.85
73024;BME280;61199;47.526;8.538;2023-04-06T07:37:27;96715.91;;;5.78;54.73
73024;BME280;61199;47.526;8.538;2023-04-06T07:39:53;96715.63;;;6.09;54.10
73024;BME280;61199;47.526;8.538;2023-04-06T07:42:20;96723.41;;;6.35;53.78
73024;BME280;61199;47.526;8.538;2023-04-06T07:44:48;96721.94;;;6.44;53.23
73024;BME280;61199;47.526;8.538;2023-04-06T07:47:14;96717.88;;;6.40;53.18
73024;BME280;61199;47.526;8.538;2023-04-06T07:49:41;96719.03;;;6.61;52.75
73024;BME280;61199;47.526;8.538;2023-04-06T07:52:07;96712.59;;;6.79;52.12
73024;BME280;61199;47.526;8.538;2023-04-06T07:54:33;96716.75;;;6.94;51.86
73024;BME280;61199;47.526;8.538;2023-04-06T07:57:00;96723.00;;;7.04;51.06
73024;BME280;61199;47.526;8.538;2023-04-06T07:59:26;96724.22;;;7.11;50.94
73024;BME280;61199;47.526;8.538;2023-04-06T08:01:53;96720.88;;;7.21;50.82
73024;BME280;61199;47.526;8.538;2023-04-06T08:04:20;96709.16;;;7.39;50.52
73024;BME280;61199;47.526;8.538;2023-04-06T08:06:46;96718.53;;;7.42;50.81
73024;BME280;61199;47.526;8.538;2023-04-06T08:09:13;96717.69;;;7.41;50.13
73024;BME280;61199;47.526;8.538;2023-04-06T08:11:39;96717.53;;;7.19;50.54
73024;BME280;61199;47.526;8.538;2023-04-06T08:14:06;96724.66;;;7.05;51.59
73024;BME280;61199;47.526;8.538;2023-04-06T08:16:33;96718.41;;;6.95;51.92
73024;BME280;61199;47.526;8.538;2023-04-06T08:18:59;96715.28;;;7.02;51.34
73024;BME280;61199;47.526;8.538;2023-04-06T08:21:26;96719.63;;;7.02;52.09
73024;BME280;61199;47.526;8.538;2023-04-06T08:23:52;96713.84;;;6.86;51.63
73024;BME280;61199;47.526;8.538;2023-04-06T08:26:19;96720.97;;;7.07;51.73
73024;BME280;61199;47.526;8.538;2023-04-06T08:28:45;96711.88;;;7.38;50.91
73024;BME280;61199;47.526;8.538;2023-04-06T08:31:12;96711.03;;;7.37;50.75
73024;BME280;61199;47.526;8.538;2023-04-06T08:33:38;96714.25;;;7.05;50.11
73024;BME280;61199;47.526;8.538;2023-04-06T08:36:13;96713.16;;;7.07;50.91
73024;BME280;61199;47.526;8.538;2023-04-06T08:38:41;96721.03;;;6.95;52.06
73024;BME280;61199;47.526;8.538;2023-04-06T08:41:11;96709.22;;;7.14;51.60
73024;BME280;61199;47.526;8.538;2023-04-06T08:43:54;96708.91;;;7.55;50.55
73024;BME280;61199;47.526;8.538;2023-04-06T08:46:23;96718.09;;;7.48;50.23
73024;BME280;61199;47.526;8.538;2023-04-06T08:48:56;96714.66;;;7.47;49.75
73024;BME280;61199;47.526;8.538;2023-04-06T08:51:24;96708.38;;;7.26;48.85
73024;BME280;61199;47.526;8.538;2023-04-06T08:53:56;96707.94;;;7.20;48.88
73024;BME280;61199;47.526;8.538;2023-04-06T08:56:23;96710.13;;;7.26;49.04
73024;BME280;61199;47.526;8.538;2023-04-06T08:58:52;96713.28;;;7.18;50.03
73024;BME280;61199;47.526;8.538;2023-04-06T09:01:23;96712.34;;;7.19;49.49
73024;BME280;61199;47.526;8.538;2023-04-06T09:03:55;96703.56;;;7.33;50.06
73024;BME280;61199;47.526;8.538;2023-04-06T09:06:23;96706.28;;;7.55;49.99
73024;BME280;61199;47.526;8.538;2023-04-06T09:08:49;96701.66;;;7.71;48.84
73024;BME280;61199;47.526;8.538;2023-04-06T09:11:15;96708.25;;;7.64;49.49
73024;BME280;61199;47.526;8.538;2023-04-06T09:13:49;96693.59;;;7.74;48.78
73024;BME280;61199;47.526;8.538;2023-04-06T09:16:17;96697.94;;;7.86;47.41
73024;BME280;61199;47.526;8.538;2023-04-06T09:18:44;96682.34;;;7.97;47.25
73024;BME280;61199;47.526;8.538;2023-04-06T09:21:10;96681.16;;;8.01;47.88
73024;BME280;61199;47.526;8.538;2023-04-06T09:23:38;96688.97;;;8.24;45.65
73024;BME280;61199;47.526;8.538;2023-04-06T09:28:53;96679.31;;;8.37;44.63
73024;BME280;61199;47.526;8.538;2023-04-06T09:31:31;96678.28;;;8.62;45.10
73024;BME280;61199;47.526;8.538;2023-04-06T09:34:00;96678.03;;;8.64;44.14
73024;BME280;61199;47.526;8.538;2023-04-06T09:36:31;96676.28;;;8.54;44.06
73024;BME280;61199;47.526;8.538;2023-04-06T09:39:00;96679.44;;;8.47;43.62
73024;BME280;61199;47.526;8.538;2023-04-06T09:41:28;96675.56;;;8.63;43.53
73024;BME280;61199;47.526;8.538;2023-04-06T09:44:09;96672.63;;;8.78;43.53
73024;BME280;61199;47.526;8.538;2023-04-06T09:46:40;96665.63;;;8.90;44.02
73024;BME280;61199;47.526;8.538;2023-04-06T09:49:27;96661.22;;;8.79;42.29
73024;BME280;61199;47.526;8.538;2023-04-06T09:51:57;96661.56;;;8.86;42.50
73024;BME280;61199;47.526;8.538;2023-04-06T09:54:28;96669.03;;;9.12;42.41
73024;BME280;61199;47.526;8.538;2023-04-06T09:57:08;96658.84;;;9.09;40.10
73024;BME280;61199;47.526;8.538;2023-04-06T10:02:18;96657.53;;;9.15;39.10
73024;BME280;61199;47.526;8.538;2023-04-06T10:05:12;96658.13;;;9.18;38.21
73024;BME280;61199;47.526;8.538;2023-04-06T10:07:40;96662.88;;;9.24;38.89
73024;BME280;61199;47.526;8.538;2023-04-06T10:10:24;96659.66;;;9.32;38.75
73024;BME280;61199;47.526;8.538;2023-04-06T10:12:51;96660.72;;;9.40;38.28
73024;BME280;61199;47.526;8.538;2023-04-06T10:15:18;96649.50;;;9.60;37.96
73024;BME280;61199;47.526;8.538;2023-04-06T10:17:48;96663.16;;;9.64;36.94
73024;BME280;61199;47.526;8.538;2023-04-06T10:20:23;96651.97;;;9.73;36.89
73024;BME280;61199;47.526;8.538;2023-04-06T10:25:32;96665.25;;;9.70;36.96
73024;BME280;61199;47.526;8.538;2023-04-06T10:28:00;96652.69;;;9.64;36.49
73024;BME280;61199;47.526;8.538;2023-04-06T10:30:28;96653.19;;;9.89;37.67
73024;BME280;61199;47.526;8.538;2023-04-06T10:32:54;96647.13;;;10.20;37.84
73024;BME280;61199;47.526;8.538;2023-04-06T10:35:21;96646.25;;;10.31;37.07
73024;BME280;61199;47.526;8.538;2023-04-06T10:37:49;96643.25;;;10.35;36.45
73024;BME280;61199;47.526;8.538;2023-04-06T10:40:25;96649.84;;;10.50;35.87
73024;BME280;61199;47.526;8.538;2023-04-06T10:42:53;96649.66;;;10.42;35.57
73024;BME280;61199;47.526;8.538;2023-04-06T10:45:24;96648.69;;;10.43;35.50
73024;BME280;61199;47.526;8.538;2023-04-06T10:47:54;96649.50;;;10.64;35.10
73024;BME280;61199;47.526;8.538;2023-04-06T10:50:22;96644.25;;;10.64;34.89
73024;BME280;61199;47.526;8.538;2023-04-06T10:53:00;96646.25;;;10.51;35.46
73024;BME280;61199;47.526;8.538;2023-04-06T10:55:28;96638.31;;;10.62;35.04
73024;BME280;61199;47.526;8.538;2023-04-06T10:57:55;96635.44;;;10.65;36.50
73024;BME280;61199;47.526;8.538;2023-04-06T11:00:21;96641.22;;;10.59;35.97
73024;BME280;61199;47.526;8.538;2023-04-06T11:02:48;96643.63;;;11.02;35.61
73024;BME280;61199;47.526;8.538;2023-04-06T11:05:15;96638.41;;;11.11;35.78
73024;BME280;61199;47.526;8.538;2023-04-06T11:07:41;96636.22;;;11.16;35.23
73024;BME280;61199;47.526;8.538;2023-04-06T11:10:08;96633.84;;;11.13;34.63
73024;BME280;61199;47.526;8.538;2023-04-06T11:12:38;96631.31;;;11.32;35.12
73024;BME280;61199;47.526;8.538;2023-04-06T11:15:04;96628.81;;;11.40;34.10
73024;BME280;61199;47.526;8.538;2023-04-06T11:17:36;96628.97;;;11.39;34.15
73024;BME280;61199;47.526;8.538;2023-04-06T11:20:04;96617.84;;;11.56;33.60
73024;BME280;61199;47.526;8.538;2023-04-06T11:22:31;96615.34;;;11.54;32.85
73024;BME280;61199;47.526;8.538;2023-04-06T11:25:07;96612.41;;;11.38;34.05
73024;BME280;61199;47.526;8.538;2023-04-06T11:27:38;96612.84;;;11.52;34.52
73024;BME280;61199;47.526;8.538;2023-04-06T11:30:06;96609.47;;;11.71;32.98
73024;BME280;61199;47.526;8.538;2023-04-06T11:32:43;96595.78;;;11.77;32.57
73024;BME280;61199;47.526;8.538;2023-04-06T11:35:21;96608.22;;;12.03;32.93
73024;BME280;61199;47.526;8.538;2023-04-06T11:37:50;96598.84;;;12.10;33.34
73024;BME280;61199;47.526;8.538;2023-04-06T11:40:21;96603.47;;;12.35;32.98
73024;BME280;61199;47.526;8.538;2023-04-06T11:42:53;96601.28;;;12.12;32.72
73024;BME280;61199;47.526;8.538;2023-04-06T11:45:19;96596.06;;;12.12;32.69
73024;BME280;61199;47.526;8.538;2023-04-06T11:47:55;96595.63;;;12.26;32.71
73024;BME280;61199;47.526;8.538;2023-04-06T11:50:22;96594.94;;;12.14;32.49
73024;BME280;61199;47.526;8.538;2023-04-06T11:52:58;96598.00;;;12.00;31.30
73024;BME280;61199;47.526;8.538;2023-04-06T11:55:29;96592.59;;;12.30;32.05
73024;BME280;61199;47.526;8.538;2023-04-06T11:57:58;96587.66;;;12.64;32.34
73024;BME280;61199;47.526;8.538;2023-04-06T12:00:25;96583.06;;;12.20;32.22
73024;BME280;61199;47.526;8.538;2023-04-06T12:02:51;96586.31;;;12.41;32.59
73024;BME280;61199;47.526;8.538;2023-04-06T12:05:18;96586.91;;;12.35;31.46
73024;BME280;61199;47.526;8.538;2023-04-06T12:07:45;96580.16;;;12.04;32.40
73024;BME280;61199;47.526;8.538;2023-04-06T12:10:12;96581.13;;;12.03;32.34
73024;BME280;61199;47.526;8.538;2023-04-06T12:12:38;96581.13;;;12.03;31.96
73024;BME280;61199;47.526;8.538;2023-04-06T12:15:06;96575.88;;;11.84;32.53
73024;BME280;61199;47.526;8.538;2023-04-06T12:17:32;96577.28;;;12.07;32.30
73024;BME280;61199;47.526;8.538;2023-04-06T12:19:59;96569.00;;;11.83;32.29
73024;BME280;61199;47.526;8.538;2023-04-06T12:22:31;96569.13;;;12.00;32.25
73024;BME280;61199;47.526;8.538;2023-04-06T12:24:57;96564.56;;;12.02;32.72
73024;BME280;61199;47.526;8.538;2023-04-06T12:27:24;96565.59;;;12.47;33.21
73024;BME280;61199;47.526;8.538;2023-04-06T12:29:50;96564.97;;;12.63;31.42
73024;BME280;61199;47.526;8.538;2023-04-06T12:32:16;96559.09;;;12.42;30.34
73024;BME280;61199;47.526;8.538;2023-04-06T12:34:43;96566.28;;;12.49;32.10
73024;BME280;61199;47.526;8.538;2023-04-06T12:37:09;96559.97;;;12.69;32.33
73024;BME280;61199;47.526;8.538;2023-04-06T12:39:36;96556.81;;;13.02;30.24
73024;BME280;61199;47.526;8.538;2023-04-06T12:42:02;96550.53;;;12.76;29.96
73024;BME280;61199;47.526;8.538;2023-04-06T12:44:29;96555.47;;;12.89;30.13
73024;BME280;61199;47.526;8.538;2023-04-06T12:46:55;96548.25;;;12.91;30.17
73024;BME280;61199;47.526;8.538;2023-04-06T12:49:22;96545.66;;;13.18;31.00
73024;BME280;61199;47.526;8.538;2023-04-06T12:51:48;96551.56;;;12.93;29.67
73024;BME280;61199;47.526;8.538;2023-04-06T12:54:15;96546.19;;;12.58;30.08
73024;BME280;61199;47.526;8.538;2023-04-06T12:56:41;96546.28;;;12.66;28.62
73024;BME280;61199;47.526;8.538;2023-04-06T12:59:08;96546.06;;;12.50;27.17
73024;BME280;61199;47.526;8.538;2023-04-06T13:01:34;96539.44;;;12.46;25.61
73024;BME280;61199;47.526;8.538;2023-04-06T13:04:01;96548.38;;;12.62;27.87
73024;BME280;61199;47.526;8.538;2023-04-06T13:06:27;96544.56;;;12.84;28.87
73024;BME280;61199;47.526;8.538;2023-04-06T13:08:55;96536.44;;;13.31;29.65
73024;BME280;61199;47.526;8.538;2023-04-06T13:11:21;96538.56;;;13.63;28.78
73024;BME280;61199;47.526;8.538;2023-04-06T13:13:52;96540.16;;;13.91;27.28
73024;BME280;61199;47.526;8.538;2023-04-06T13:16:18;96536.22;;;13.25;27.01
73024;BME280;61199;47.526;8.538;2023-04-06T13:18:45;96530.97;;;13.25;27.99